sensor_id;sensor_type;location;lat;lon;timestamp;pressure;altitude;pressure_sealevel;temperature;humidity
62333;BME280;48624;49.812;8.562;2023-12-07T00:01:05;100998.25;;;2.11;100.00
62333;BME280;48624;49.812;8.562;2023-12-07T00:03:32;100998.25;;;2.11;100.00
62333;BME280;48624;49.812;8.562;2023-12-07T00:05:57;101000.84;;;2.13;100.00
62333;BME280;48624;49.812;8.562;2023-12-07T00:08:22;100992.28;;;2.06;100.00
62333;BME280;48624;49.812;8.562;2023-12-07T00:10:48;100996.63;;;2.07;100.00
62333;BME280;48624;49.812;8.562;2023-12-07T00:13:13;101006.91;;;2.13;100.00
62333;BME280;48624;49.812;8.562;2023-12-07T00:15:38;101007.97;;;2.06;100.00
62333;BME280;48624;49.812;8.562;2023-12-07T00:18:04;101009.72;;;2.04;100.00
62333;BME280;48624;49.812;8.562;2023-12-07T00:20:30;101004.56;;;2.02;100.00
62333;BME280;48624;49.812;8.562;2023-12-07T00:22:56;101009.06;;;1.96;100.00
62333;BME280;48624;49.812;8.562;2023-12-07T00:25:21;101007.47;;;1.90;100.00
62333;BME280;48624;49.812;8.562;2023-12-07T00:27:47;101017.28;;;1.78;100.00
62333;BME280;48624;49.812;8.562;2023-12-07T00:30:13;101004.22;;;1.78;100.00
62333;BME280;48624;49.812;8.562;2023-12-07T00:32:38;101013.91;;;1.73;100.00
62333;BME280;48624;49.812;8.562;2023-12-07T00:35:04;101008.69;;;1.73;100.00
62333;BME280;48624;49.812;8.562;2023-12-07T00:37:29;101012.31;;;1.66;100.00
62333;BME280;48624;49.812;8.562;2023-12-07T00:39:55;101008.00;;;1.65;100.00
62333;BME280;48624;49.812;8.562;2023-12-07T00:42:23;101022.19;;;1.51;100.00
62333;BME280;48624;49.812;8.562;2023-12-07T00:44:48;101014.53;;;1.44;100.00
62333;BME280;48624;49.812;8.562;2023-12-07T00:47:13;101020.84;;;1.32;100.00
62333;BME280;48624;49.812;8.562;2023-12-07T00:49:39;101021.75;;;1.31;100.00
62333;BME280;48624;49.812;8.562;2023-12-07T00:52:06;101022.00;;;1.18;100.00
62333;BME280;48624;49.812;8.562;2023-12-07T00:54:31;101019.38;;;1.18;100.00
62333;BME280;48624;49.812;8.562;2023-12-07T00:56:56;101025.56;;;1.14;100.00
62333;BME280;48624;49.812;8.562;2023-12-07T00:59:23;101019.56;;;1.09;100.00
62333;BME280;48624;49.812;8.562;2023-12-07T01:01:48;101021.44;;;1.02;100.00
62333;BME280;48624;49.812;8.562;2023-12-07T01:04:13;101019.75;;;1.00;100.00
62333;BME280;48624;49.812;8.562;2023-12-07T01:06:40;101022.53;;;0.89;100.00
62333;BME280;48624;49.812;8.562;2023-12-07T01:09:05;101025.16;;;0.89;100.00
62333;BME280;48624;49.812;8.562;2023-12-07T01:11:30;101029.56;;;0.85;100.00
62333;BME280;48624;49.812;8.562;2023-12-07T01:13:55;101039.16;;;0.85;100.00
62333;BME280;48624;49.812;8.562;2023-12-07T01:16:21;101034.78;;;0.85;100.00
62333;BME280;48624;49.812;8.562;2023-12-07T01:18:47;101042.66;;;0.83;100.00
62333;BME280;48624;49.812;8.562;2023-12-07T01:21:12;101039.16;;;0.85;100.00
62333;BME280;48624;49.812;8.562;2023-12-07T01:23:37;101047.06;;;0.80;100.00
62333;BME280;48624;49.812;8.562;2023-12-07T01:26:03;101046.25;;;0.76;100.00
62333;BME280;48624;49.812;8.562;2023-12-07T01:28:30;101040.31;;;0.68;100.00
62333;BME280;48624;49.812;8.562;2023-12-07T01:30:55;101043.69;;;0.73;100.00
62333;BME280;48624;49.812;8.562;2023-12-07T01:33:22;101048.88;;;0.75;100.00
62333;BME280;48624;49.812;8.562;2023-12-07T01:35:47;101047.22;;;0.71;100.00
62333;BME280;48624;49.812;8.562;2023-12-07T01:38:13;101048.16;;;0.66;100.00
62333;BME280;48624;49.812;8.562;2023-12-07T01:40:38;101052.41;;;0.72;100.00
62333;BME280;48624;49.812;8.562;2023-12-07T01:43:03;101058.47;;;0.73;100.00
62333;BME280;48624;49.812;8.562;2023-12-07T01:45:29;101063.63;;;0.76;100.00
62333;BME280;48624;49.812;8.562;2023-12-07T01:47:54;101059.38;;;0.72;100.00
62333;BME280;48624;49.812;8.562;2023-12-07T01:50:22;101069.78;;;0.73;100.00
62333;BME280;48624;49.812;8.562;2023-12-07T01:52:51;101067.22;;;0.70;100.00
62333;BME280;48624;49.812;8.562;2023-12-07T01:55:17;101066.44;;;0.66;100.00
62333;BME280;48624;49.812;8.562;2023-12-07T01:57:44;101062.06;;;0.67;100.00
62333;BME280;48624;49.812;8.562;2023-12-07T02:00:11;101068.16;;;0.66;100.00
62333;BME280;48624;49.812;8.562;2023-12-07T02:02:37;101071.66;;;0.63;100.00
62333;BME280;48624;49.812;8.562;2023-12-07T02:05:04;101063.81;;;0.66;100.00
62333;BME280;48624;49.812;8.562;2023-12-07T02:07:30;101068.25;;;0.60;100.00
62333;BME280;48624;49.812;8.562;2023-12-07T02:09:57;101068.28;;;0.58;100.00
62333;BME280;48624;49.812;8.562;2023-12-07T02:12:23;101067.28;;;0.65;100.00
62333;BME280;48624;49.812;8.562;2023-12-07T02:14:48;101069.88;;;0.67;100.00
62333;BME280;48624;49.812;8.562;2023-12-07T02:17:34;101070.03;;;0.56;100.00
62333;BME280;48624;49.812;8.562;2023-12-07T02:20:08;101057.88;;;0.57;100.00
62333;BME280;48624;49.812;8.562;2023-12-07T02:22:39;101068.31;;;0.57;100.00
62333;BME280;48624;49.812;8.562;2023-12-07T02:25:09;101070.03;;;0.56;100.00
62333;BME280;48624;49.812;8.562;2023-12-07T02:27:39;101069.19;;;0.57;100.00
62333;BME280;48624;49.812;8.562;2023-12-07T02:30:06;101067.44;;;0.56;100.00
62333;BME280;48624;49.812;8.562;2023-12-07T02:32:32;101073.59;;;0.52;100.00
62333;BME280;48624;49.812;8.562;2023-12-07T02:34:58;101072.78;;;0.48;100.00
62333;BME280;48624;49.812;8.562;2023-12-07T02:37:27;101071.97;;;0.45;100.00
62333;BME280;48624;49.812;8.562;2023-12-07T02:39:55;101074.72;;;0.35;100.00
62333;BME280;48624;49.812;8.562;2023-12-07T02:42:22;101071.28;;;0.32;100.00
62333;BME280;48624;49.812;8.562;2023-12-07T02:44:52;101079.09;;;0.35;100.00
62333;BME280;48624;49.812;8.562;2023-12-07T02:47:18;101069.56;;;0.32;100.00
62333;BME280;48624;49.812;8.562;2023-12-07T02:49:43;101069.63;;;0.27;100.00
62333;BME280;48624;49.812;8.562;2023-12-07T02:52:09;101054.91;;;0.23;100.00
62333;BME280;48624;49.812;8.562;2023-12-07T02:54:34;101051.44;;;0.24;100.00
62333;BME280;48624;49.812;8.562;2023-12-07T02:56:59;101048.84;;;0.23;100.00
62333;BME280;48624;49.812;8.562;2023-12-07T02:59:24;101050.56;;;0.25;100.00
62333;BME280;48624;49.812;8.562;2023-12-07T03:01:50;101050.63;;;0.21;100.00
62333;BME280;48624;49.812;8.562;2023-12-07T03:04:15;101051.44;;;0.24;100.00
62333;BME280;48624;49.812;8.562;2023-12-07T03:06:40;101054.97;;;0.20;100.00
62333;BME280;48624;49.812;8.562;2023-12-07T03:09:06;101061.81;;;0.27;100.00
62333;BME280;48624;49.812;8.562;2023-12-07T03:11:31;101057.44;;;0.28;100.00
62333;BME280;48624;49.812;8.562;2023-12-07T03:13:56;101067.00;;;0.29;100.00
62333;BME280;48624;49.812;8.562;2023-12-07T03:16:22;101073.06;;;0.28;100.00
62333;BME280;48624;49.812;8.562;2023-12-07T03:18:47;101072.31;;;0.23;100.00
62333;BME280;48624;49.812;8.562;2023-12-07T03:21:12;101074.16;;;0.13;100.00
62333;BME280;48624;49.812;8.562;2023-12-07T03:23:37;101081.03;;;0.19;100.00
62333;BME280;48624;49.812;8.562;2023-12-07T03:26:03;101079.38;;;0.13;100.00
62333;BME280;48624;49.812;8.562;2023-12-07T03:28:28;101075.06;;;0.12;100.00
62333;BME280;48624;49.812;8.562;2023-12-07T03:30:53;101081.16;;;0.11;100.00
62333;BME280;48624;49.812;8.562;2023-12-07T03:33:19;101083.00;;;0.03;100.00
62333;BME280;48624;49.812;8.562;2023-12-07T03:35:44;101085.66;;;-0.01;100.00
62333;BME280;48624;49.812;8.562;2023-12-07T03:38:09;101093.47;;;-0.01;100.00
62333;BME280;48624;49.812;8.562;2023-12-07T03:40:35;101093.53;;;-0.04;100.00
62333;BME280;48624;49.812;8.562;2023-12-07T03:43:00;101084.81;;;-0.03;100.00
62333;BME280;48624;49.812;8.562;2023-12-07T03:45:28;101088.38;;;-0.10;100.00
62333;BME280;48624;49.812;8.562;2023-12-07T03:47:53;101085.78;;;-0.10;100.00
62333;BME280;48624;49.812;8.562;2023-12-07T03:50:18;101083.19;;;-0.11;100.00
62333;BME280;48624;49.812;8.562;2023-12-07T03:52:44;101086.63;;;-0.08;100.00
62333;BME280;48624;49.812;8.562;2023-12-07T03:55:09;101078.91;;;-0.14;100.00
62333;BME280;48624;49.812;8.562;2023-12-07T03:57:35;101081.41;;;-0.08;100.00
62333;BME280;48624;49.812;8.562;2023-12-07T04:00:01;101081.41;;;-0.06;100.00
62333;BME280;48624;49.812;8.562;2023-12-07T04:02:26;101090.09;;;-0.07;100.00
62333;BME280;48624;49.812;8.562;2023-12-07T04:04:52;101088.41;;;-0.11;100.00
62333;BME280;48624;49.812;8.562;2023-12-07T04:07:17;101090.97;;;-0.08;100.00
62333;BME280;48624;49.812;8.562;2023-12-07T04:09:42;101099.63;;;-0.08;100.00
62333;BME280;48624;49.812;8.562;2023-12-07T04:12:08;101103.13;;;-0.07;100.00
62333;BME280;48624;49.812;8.562;2023-12-07T04:14:33;101092.69;;;-0.07;100.00
62333;BME280;48624;49.812;8.562;2023-12-07T04:16:58;101093.59;;;-0.08;100.00
62333;BME280;48624;49.812;8.562;2023-12-07T04:19:24;101094.47;;;-0.11;100.00
62333;BME280;48624;49.812;8.562;2023-12-07T04:21:49;101093.66;;;-0.15;100.00
62333;BME280;48624;49.812;8.562;2023-12-07T04:24:14;101097.97;;;-0.13;100.00
62333;BME280;48624;49.812;8.562;2023-12-07T04:26:40;101106.66;;;-0.13;100.00
62333;BME280;48624;49.812;8.562;2023-12-07T04:29:05;101103.19;;;-0.15;100.00
62333;BME280;48624;49.812;8.562;2023-12-07T04:31:30;101097.25;;;-0.25;100.00
62333;BME280;48624;49.812;8.562;2023-12-07T04:33:55;101100.69;;;-0.23;100.00
62333;BME280;48624;49.812;8.562;2023-12-07T04:36:21;101108.53;;;-0.24;100.00
62333;BME280;48624;49.812;8.562;2023-12-07T04:38:46;101113.72;;;-0.23;100.00
62333;BME280;48624;49.812;8.562;2023-12-07T04:41:11;101106.84;;;-0.27;100.00
62333;BME280;48624;49.812;8.562;2023-12-07T04:43:36;101116.44;;;-0.31;100.00
62333;BME280;48624;49.812;8.562;2023-12-07T04:46:02;101112.06;;;-0.27;100.00
62333;BME280;48624;49.812;8.562;2023-12-07T04:48:28;101109.44;;;-0.29;100.00
62333;BME280;48624;49.812;8.562;2023-12-07T04:50:54;101122.53;;;-0.35;100.00
62333;BME280;48624;49.812;8.562;2023-12-07T04:53:19;101117.31;;;-0.35;100.00
62333;BME280;48624;49.812;8.562;2023-12-07T04:55:44;101122.59;;;-0.38;100.00
62333;BME280;48624;49.812;8.562;2023-12-07T04:58:13;101132.06;;;-0.34;100.00
62333;BME280;48624;49.812;8.562;2023-12-07T05:00:39;101125.97;;;-0.30;100.00
62333;BME280;48624;49.812;8.562;2023-12-07T05:03:04;101120.91;;;-0.44;100.00
62333;BME280;48624;49.812;8.562;2023-12-07T05:05:29;101123.41;;;-0.33;100.00
62333;BME280;48624;49.812;8.562;2023-12-07T05:07:54;101131.22;;;-0.34;100.00
62333;BME280;48624;49.812;8.562;2023-12-07T05:10:20;101129.41;;;-0.28;100.00
62333;BME280;48624;49.812;8.562;2023-12-07T05:12:45;101117.31;;;-0.33;100.00
62333;BME280;48624;49.812;8.562;2023-12-07T05:15:11;101122.47;;;-0.29;100.00
62333;BME280;48624;49.812;8.562;2023-12-07T05:17:36;101120.78;;;-0.33;100.00
62333;BME280;48624;49.812;8.562;2023-12-07T05:20:01;101116.38;;;-0.29;100.00
62333;BME280;48624;49.812;8.562;2023-12-07T05:22:27;101119.91;;;-0.32;100.00
62333;BME280;48624;49.812;8.562;2023-12-07T05:24:53;101115.53;;;-0.28;100.00
62333;BME280;48624;49.812;8.562;2023-12-07T05:27:18;101107.78;;;-0.33;100.00
62333;BME280;48624;49.812;8.562;2023-12-07T05:29:43;101116.59;;;-0.46;100.00
62333;BME280;48624;49.812;8.562;2023-12-07T05:32:09;101113.06;;;-0.40;100.00
62333;BME280;48624;49.812;8.562;2023-12-07T05:34:34;101109.63;;;-0.44;100.00
62333;BME280;48624;49.812;8.562;2023-12-07T05:37:01;101107.84;;;-0.39;100.00
62333;BME280;48624;49.812;8.562;2023-12-07T05:39:26;101112.22;;;-0.43;100.00
62333;BME280;48624;49.812;8.562;2023-12-07T05:41:51;101112.31;;;-0.53;100.00
62333;BME280;48624;49.812;8.562;2023-12-07T05:44:18;101109.72;;;-0.50;100.00
62333;BME280;48624;49.812;8.562;2023-12-07T05:46:47;101109.75;;;-0.55;100.00
62333;BME280;48624;49.812;8.562;2023-12-07T05:49:12;101108.78;;;-0.48;100.00
62333;BME280;48624;49.812;8.562;2023-12-07T05:51:38;101105.34;;;-0.48;100.00
62333;BME280;48624;49.812;8.562;2023-12-07T05:54:03;101108.00;;;-0.54;100.00
62333;BME280;48624;49.812;8.562;2023-12-07T05:56:28;101116.59;;;-0.48;100.00
62333;BME280;48624;49.812;8.562;2023-12-07T05:58:54;101128.72;;;-0.45;100.00
62333;BME280;48624;49.812;8.562;2023-12-07T06:01:19;101121.22;;;-0.72;100.00
62333;BME280;48624;49.812;8.562;2023-12-07T06:03:45;101129.16;;;-0.86;100.00
62333;BME280;48624;49.812;8.562;2023-12-07T06:06:11;101126.31;;;-0.62;100.00
62333;BME280;48624;49.812;8.562;2023-12-07T06:08:37;101131.56;;;-0.68;100.00
62333;BME280;48624;49.812;8.562;2023-12-07T06:11:02;101125.44;;;-0.63;100.00
62333;BME280;48624;49.812;8.562;2023-12-07T06:13:29;101125.44;;;-0.61;100.00
62333;BME280;48624;49.812;8.562;2023-12-07T06:15:54;101123.75;;;-0.65;100.00
62333;BME280;48624;49.812;8.562;2023-12-07T06:18:20;101127.09;;;-0.54;100.00
62333;BME280;48624;49.812;8.562;2023-12-07T06:20:45;101122.69;;;-0.49;100.00
62333;BME280;48624;49.812;8.562;2023-12-07T06:23:10;101128.75;;;-0.47;100.00
62333;BME280;48624;49.812;8.562;2023-12-07T06:25:39;101129.56;;;-0.42;100.00
62333;BME280;48624;49.812;8.562;2023-12-07T06:28:05;101120.91;;;-0.45;100.00
62333;BME280;48624;49.812;8.562;2023-12-07T06:30:30;101126.97;;;-0.43;100.00
62333;BME280;48624;49.812;8.562;2023-12-07T06:32:55;101128.72;;;-0.45;100.00
62333;BME280;48624;49.812;8.562;2023-12-07T06:35:21;101121.84;;;-0.49;100.00
62333;BME280;48624;49.812;8.562;2023-12-07T06:37:47;101131.38;;;-0.50;100.00
62333;BME280;48624;49.812;8.562;2023-12-07T06:40:12;101137.47;;;-0.49;100.00
62333;BME280;48624;49.812;8.562;2023-12-07T06:42:38;101139.19;;;-0.50;100.00
62333;BME280;48624;49.812;8.562;2023-12-07T06:45:03;101138.34;;;-0.53;100.00
62333;BME280;48624;49.812;8.562;2023-12-07T06:47:29;101142.72;;;-0.57;100.00
62333;BME280;48624;49.812;8.562;2023-12-07T06:49:54;101151.41;;;-0.58;100.00
62333;BME280;48624;49.812;8.562;2023-12-07T06:52:21;101154.84;;;-0.54;100.00
62333;BME280;48624;49.812;8.562;2023-12-07T06:54:46;101157.47;;;-0.53;100.00
62333;BME280;48624;49.812;8.562;2023-12-07T06:57:12;101153.91;;;-0.47;100.00
62333;BME280;48624;49.812;8.562;2023-12-07T06:59:37;101154.75;;;-0.42;100.00
62333;BME280;48624;49.812;8.562;2023-12-07T07:02:03;101164.22;;;-0.36;100.00
62333;BME280;48624;49.812;8.562;2023-12-07T07:04:29;101165.91;;;-0.34;100.00
62333;BME280;48624;49.812;8.562;2023-12-07T07:06:55;101165.91;;;-0.32;100.00
62333;BME280;48624;49.812;8.562;2023-12-07T07:09:20;101170.22;;;-0.30;100.00
62333;BME280;48624;49.812;8.562;2023-12-07T07:11:49;101177.16;;;-0.27;100.00
62333;BME280;48624;49.812;8.562;2023-12-07T07:14:14;101168.47;;;-0.26;100.00
62333;BME280;48624;49.812;8.562;2023-12-07T07:16:40;101176.28;;;-0.26;100.00
62333;BME280;48624;49.812;8.562;2023-12-07T07:19:06;101172.75;;;-0.22;100.00
62333;BME280;48624;49.812;8.562;2023-12-07T07:21:31;101172.72;;;-0.19;100.00
62333;BME280;48624;49.812;8.562;2023-12-07T07:23:57;101177.94;;;-0.20;100.00
62333;BME280;48624;49.812;8.562;2023-12-07T07:26:22;101183.25;;;-0.30;100.00
62333;BME280;48624;49.812;8.562;2023-12-07T07:28:50;101184.94;;;-0.25;100.00
62333;BME280;48624;49.812;8.562;2023-12-07T07:31:16;101182.31;;;-0.24;100.00
62333;BME280;48624;49.812;8.562;2023-12-07T07:33:42;101192.78;;;-0.27;100.00
62333;BME280;48624;49.812;8.562;2023-12-07T07:36:08;101193.66;;;-0.28;100.00
62333;BME280;48624;49.812;8.562;2023-12-07T07:38:33;101184.09;;;-0.28;100.00
62333;BME280;48624;49.812;8.562;2023-12-07T07:41:00;101190.97;;;-0.20;100.00
62333;BME280;48624;49.812;8.562;2023-12-07T07:43:25;101196.22;;;-0.23;100.00
62333;BME280;48624;49.812;8.562;2023-12-07T07:45:51;101189.19;;;-0.18;100.00
62333;BME280;48624;49.812;8.562;2023-12-07T07:48:16;101185.84;;;-0.31;100.00
62333;BME280;48624;49.812;8.562;2023-12-07T07:50:41;101179.91;;;-0.41;100.00
62333;BME280;48624;49.812;8.562;2023-12-07T07:53:06;101184.97;;;-0.30;100.00
62333;BME280;48624;49.812;8.562;2023-12-07T07:55:32;101179.88;;;-0.39;100.00
62333;BME280;48624;49.812;8.562;2023-12-07T07:57:57;101185.75;;;-0.22;100.00
62333;BME280;48624;49.812;8.562;2023-12-07T08:00:22;101187.41;;;-0.13;100.00
62333;BME280;48624;49.812;8.562;2023-12-07T08:02:51;101174.50;;;-0.24;100.00
62333;BME280;48624;49.812;8.562;2023-12-07T08:05:16;101166.56;;;-0.13;100.00
62333;BME280;48624;49.812;8.562;2023-12-07T08:07:41;101163.81;;;0.01;100.00
62333;BME280;48624;49.812;8.562;2023-12-07T08:10:07;101167.13;;;0.11;100.00
62333;BME280;48624;49.812;8.562;2023-12-07T08:12:33;101157.41;;;0.25;100.00
62333;BME280;48624;49.812;8.562;2023-12-07T08:14:59;101155.53;;;0.35;100.00
62333;BME280;48624;49.812;8.562;2023-12-07T08:17:24;101133.91;;;0.27;100.00
62333;BME280;48624;49.812;8.562;2023-12-07T08:19:51;101127.88;;;0.25;100.00
62333;BME280;48624;49.812;8.562;2023-12-07T08:22:16;101114.69;;;0.34;100.00
62333;BME280;48624;49.812;8.562;2023-12-07T08:24:42;101115.56;;;0.35;100.00
62333;BME280;48624;49.812;8.562;2023-12-07T08:27:07;101114.69;;;0.36;100.00
62333;BME280;48624;49.812;8.562;2023-12-07T08:29:33;101122.41;;;0.42;100.00
62333;BME280;48624;49.812;8.562;2023-12-07T08:31:59;101120.59;;;0.47;100.00
62333;BME280;48624;49.812;8.562;2023-12-07T08:34:24;101120.59;;;0.49;100.00
62333;BME280;48624;49.812;8.562;2023-12-07T08:36:50;101124.84;;;0.53;100.00
62333;BME280;48624;49.812;8.562;2023-12-07T08:39:15;101134.41;;;0.54;100.00
62333;BME280;48624;49.812;8.562;2023-12-07T08:41:41;101138.84;;;0.47;100.00
62333;BME280;48624;49.812;8.562;2023-12-07T08:44:06;101133.56;;;0.52;100.00
62333;BME280;48624;49.812;8.562;2023-12-07T08:46:31;101135.22;;;0.56;100.00
62333;BME280;48624;49.812;8.562;2023-12-07T08:48:57;101127.47;;;0.51;100.00
62333;BME280;48624;49.812;8.562;2023-12-07T08:51:22;101123.13;;;0.53;100.00
62333;BME280;48624;49.812;8.562;2023-12-07T08:53:48;101133.63;;;0.47;100.00
62333;BME280;48624;49.812;8.562;2023-12-07T08:56:13;101124.03;;;0.51;100.00
62333;BME280;48624;49.812;8.562;2023-12-07T08:58:39;101122.25;;;0.51;100.00
62333;BME280;48624;49.812;8.562;2023-12-07T09:01:04;101121.47;;;0.48;100.00
62333;BME280;48624;49.812;8.562;2023-12-07T09:03:32;101119.66;;;0.51;100.00
62333;BME280;48624;49.812;8.562;2023-12-07T09:05:59;101122.19;;;0.56;100.00
62333;BME280;48624;49.812;8.562;2023-12-07T09:08:24;101123.88;;;0.60;100.00
62333;BME280;48624;49.812;8.562;2023-12-07T09:10:50;101121.19;;;0.66;100.00
62333;BME280;48624;49.812;8.562;2023-12-07T09:13:17;101128.91;;;0.71;100.00
62333;BME280;48624;49.812;8.562;2023-12-07T09:15:42;101125.38;;;0.75;100.00
62333;BME280;48624;49.812;8.562;2023-12-07T09:18:07;101127.19;;;0.70;100.00
62333;BME280;48624;49.812;8.562;2023-12-07T09:20:33;101116.75;;;0.72;100.00
62333;BME280;48624;49.812;8.562;2023-12-07T09:22:58;101121.00;;;0.79;100.00
62333;BME280;48624;49.812;8.562;2023-12-07T09:25:23;101128.81;;;0.79;100.00
62333;BME280;48624;49.812;8.562;2023-12-07T09:27:52;101126.13;;;0.83;100.00
62333;BME280;48624;49.812;8.562;2023-12-07T09:30:18;101126.09;;;0.85;100.00
62333;BME280;48624;49.812;8.562;2023-12-07T09:32:43;101126.97;;;0.86;100.00
62333;BME280;48624;49.812;8.562;2023-12-07T09:35:09;101125.16;;;0.91;100.00
62333;BME280;48624;49.812;8.562;2023-12-07T09:37:40;101132.03;;;0.93;100.00
62333;BME280;48624;49.812;8.562;2023-12-07T09:40:06;101132.84;;;0.99;100.00
62333;BME280;48624;49.812;8.562;2023-12-07T09:42:32;101139.72;;;1.03;100.00
62333;BME280;48624;49.812;8.562;2023-12-07T09:44:58;101146.47;;;1.16;100.00
62333;BME280;48624;49.812;8.562;2023-12-07T09:47:26;101157.09;;;1.04;100.00
62333;BME280;48624;49.812;8.562;2023-12-07T09:49:52;101153.50;;;1.11;100.00
62333;BME280;48624;49.812;8.562;2023-12-07T09:52:19;101160.59;;;1.03;100.00
62333;BME280;48624;49.812;8.562;2023-12-07T09:54:46;101158.19;;;0.92;100.00
62333;BME280;48624;49.812;8.562;2023-12-07T09:57:12;101156.53;;;0.25;100.00
62333;BME280;48624;49.812;8.562;2023-12-07T09:59:39;101157.16;;;0.44;100.00
62333;BME280;48624;49.812;8.562;2023-12-07T10:02:06;101157.84;;;0.55;100.00
62333;BME280;48624;49.812;8.562;2023-12-07T10:04:32;101145.44;;;0.72;100.00
62333;BME280;48624;49.812;8.562;2023-12-07T10:06:58;101144.69;;;0.65;100.00
62333;BME280;48624;49.812;8.562;2023-12-07T10:09:23;101135.81;;;0.75;100.00
62333;BME280;48624;49.812;8.562;2023-12-07T10:11:49;101143.28;;;0.40;100.00
62333;BME280;48624;49.812;8.562;2023-12-07T10:14:14;101138.31;;;0.23;100.00
62333;BME280;48624;49.812;8.562;2023-12-07T10:16:53;101140.19;;;0.12;100.00
62333;BME280;48624;49.812;8.562;2023-12-07T10:19:20;101134.84;;;0.21;100.00
62333;BME280;48624;49.812;8.562;2023-12-07T10:21:51;101142.84;;;0.10;100.00
62333;BME280;48624;49.812;8.562;2023-12-07T10:24:19;101130.41;;;0.30;100.00
62333;BME280;48624;49.812;8.562;2023-12-07T10:26:45;101124.19;;;0.40;100.00
62333;BME280;48624;49.812;8.562;2023-12-07T10:29:11;101124.25;;;0.35;100.00
62333;BME280;48624;49.812;8.562;2023-12-07T10:31:37;101130.28;;;0.39;100.00
62333;BME280;48624;49.812;8.562;2023-12-07T10:34:02;101120.44;;;0.58;100.00
62333;BME280;48624;49.812;8.562;2023-12-07T10:36:29;101102.13;;;0.61;100.00
62333;BME280;48624;49.812;8.562;2023-12-07T10:38:55;101110.03;;;0.55;100.00
62333;BME280;48624;49.812;8.562;2023-12-07T10:41:23;101114.13;;;0.72;100.00
62333;BME280;48624;49.812;8.562;2023-12-07T10:43:52;101124.41;;;0.81;100.00
62333;BME280;48624;49.812;8.562;2023-12-07T10:46:20;101126.06;;;0.87;100.00
62333;BME280;48624;49.812;8.562;2023-12-07T10:48:45;101121.75;;;0.86;100.00
62333;BME280;48624;49.812;8.562;2023-12-07T10:51:21;101117.94;;;1.04;100.00
62333;BME280;48624;49.812;8.562;2023-12-07T10:53:49;101117.69;;;1.18;100.00
62333;BME280;48624;49.812;8.562;2023-12-07T10:56:31;101116.84;;;1.17;100.00
62333;BME280;48624;49.812;8.562;2023-12-07T10:58:58;101106.16;;;0.81;100.00
62333;BME280;48624;49.812;8.562;2023-12-07T11:01:24;101096.03;;;0.61;100.00
62333;BME280;48624;49.812;8.562;2023-12-07T11:03:51;101090.88;;;0.59;100.00
62333;BME280;48624;49.812;8.562;2023-12-07T11:06:18;101092.38;;;0.73;100.00
62333;BME280;48624;49.812;8.562;2023-12-07T11:08:52;101089.25;;;0.50;100.00
62333;BME280;48624;49.812;8.562;2023-12-07T11:11:54;101087.53;;;0.51;100.00
62333;BME280;48624;49.812;8.562;2023-12-07T11:14:22;101078.69;;;0.60;100.00
62333;BME280;48624;49.812;8.562;2023-12-07T11:16:48;101075.38;;;0.50;100.00
62333;BME280;48624;49.812;8.562;2023-12-07T11:21:58;101063.63;;;0.77;100.00
62333;BME280;48624;49.812;8.562;2023-12-07T11:24:24;101057.34;;;0.88;100.00
62333;BME280;48624;49.812;8.562;2023-12-07T11:26:52;101062.19;;;0.59;100.00
62333;BME280;48624;49.812;8.562;2023-12-07T11:29:20;101057.22;;;0.44;100.00
62333;BME280;48624;49.812;8.562;2023-12-07T11:31:48;101050.28;;;0.41;100.00
62333;BME280;48624;49.812;8.562;2023-12-07T11:34:13;101055.63;;;0.88;100.00
62333;BME280;48624;49.812;8.562;2023-12-07T11:36:39;101045.56;;;0.66;100.00
62333;BME280;48624;49.812;8.562;2023-12-07T11:41:43;101041.44;;;0.51;100.00
62333;BME280;48624;49.812;8.562;2023-12-07T11:44:10;101032.31;;;0.77;100.00
62333;BME280;48624;49.812;8.562;2023-12-07T11:46:37;101033.19;;;0.78;100.00
62333;BME280;48624;49.812;8.562;2023-12-07T11:49:03;101029.63;;;0.80;100.00
62333;BME280;48624;49.812;8.562;2023-12-07T11:51:29;101017.56;;;0.76;100.00
62333;BME280;48624;49.812;8.562;2023-12-07T11:53:54;101017.19;;;0.96;100.00
62333;BME280;48624;49.812;8.562;2023-12-07T11:56:20;101008.31;;;1.07;100.00
62333;BME280;48624;49.812;8.562;2023-12-07T11:58:46;101000.31;;;1.15;100.00
62333;BME280;48624;49.812;8.562;2023-12-07T12:01:12;100989.53;;;1.32;100.00
62333;BME280;48624;49.812;8.562;2023-12-07T12:03:38;100980.78;;;1.34;100.00
62333;BME280;48624;49.812;8.562;2023-12-07T12:06:05;100975.69;;;1.28;100.00
62333;BME280;48624;49.812;8.562;2023-12-07T12:08:31;100978.06;;;1.41;100.00
62333;BME280;48624;49.812;8.562;2023-12-07T12:10:57;100965.28;;;1.27;100.00
62333;BME280;48624;49.812;8.562;2023-12-07T12:13:30;100965.22;;;1.30;100.00
62333;BME280;48624;49.812;8.562;2023-12-07T12:15:57;100969.41;;;1.38;100.00
62333;BME280;48624;49.812;8.562;2023-12-07T12:18:22;100951.69;;;1.51;100.00
62333;BME280;48624;49.812;8.562;2023-12-07T12:20:50;100950.13;;;1.44;100.00
62333;BME280;48624;49.812;8.562;2023-12-07T12:23:16;100950.94;;;1.46;100.00
62333;BME280;48624;49.812;8.562;2023-12-07T12:25:41;100947.78;;;1.71;100.00
62333;BME280;48624;49.812;8.562;2023-12-07T12:28:07;100942.38;;;1.79;100.00
62333;BME280;48624;49.812;8.562;2023-12-07T12:30:34;100937.00;;;1.47;100.00
62333;BME280;48624;49.812;8.562;2023-12-07T12:32:59;100936.88;;;1.52;100.00
62333;BME280;48624;49.812;8.562;2023-12-07T12:35:25;100937.56;;;1.62;100.00
62333;BME280;48624;49.812;8.562;2023-12-07T12:37:50;100930.91;;;1.47;100.00
62333;BME280;48624;49.812;8.562;2023-12-07T12:40:21;100928.38;;;1.44;100.00
62333;BME280;48624;49.812;8.562;2023-12-07T12:45:50;100930.22;;;1.38;100.00
62333;BME280;48624;49.812;8.562;2023-12-07T12:48:15;100938.81;;;1.42;100.00